Time;durP1;ratioP1;P1;durP2;ratioP2;P2;SDS_P1;SDS_P2;PMS_P1;PMS_P2;Temp;Humidity;BMP_temperature;BMP_pressure;BME280_temperature;BME280_humidity;BME280_pressure;Samples;Min_cycle;Max_cycle;Signal;HPM_P1;HPM_P2
2022/10/31 00:00:24;;;;;;;;;;;17.60;99.90;;;;;;5051321;28;20304;-73
2022/10/31 00:02:51;;;;;;;12.18;6.25;;;17.60;99.90;;;;;;5050308;28;19909;-73
2022/10/31 00:05:17;;;;;;;15.68;6.55;;;17.60;99.90;;;;;;5032599;28;20028;-75
2022/10/31 00:07:43;;;;;;;11.57;5.57;;;17.60;99.90;;;;;;5032701;28;20025;-73
2022/10/31 00:10:09;;;;;;;13.27;5.83;;;17.60;99.90;;;;;;5050746;28;20595;-74
2022/10/31 00:12:35;;;;;;;;;;;17.50;99.90;;;;;;5051502;28;20383;-74
2022/10/31 00:15:01;;;;;;;13.48;5.90;;;17.40;99.90;;;;;;5050863;28;20336;-73
2022/10/31 00:17:27;;;;;;;11.90;5.88;;;17.40;99.90;;;;;;5050935;28;20044;-74
2022/10/31 00:19:53;;;;;;;13.80;6.30;;;17.40;99.90;;;;;;5051010;28;20195;-73
2022/10/31 00:22:20;;;;;;;;;;;17.40;99.90;;;;;;5050945;28;20266;-73
2022/10/31 00:24:46;;;;;;;11.10;5.65;;;17.40;99.90;;;;;;5050561;28;19916;-73
2022/10/31 00:27:14;;;;;;;;;;;17.40;99.90;;;;;;5050815;28;20092;-74
2022/10/31 00:29:42;;;;;;;12.95;6.30;;;17.40;99.90;;;;;;5050350;28;19905;-74
2022/10/31 00:32:08;;;;;;;13.00;6.07;;;17.30;99.90;;;;;;5032770;28;20028;-74
2022/10/31 00:34:34;;;;;;;;;;;17.30;99.90;;;;;;5050631;28;20033;-73
2022/10/31 00:37:01;;;;;;;;;;;17.30;99.90;;;;;;5032707;28;20016;-74
2022/10/31 00:39:27;;;;;;;12.93;6.22;;;17.30;99.90;;;;;;5050902;28;20298;-72
2022/10/31 00:41:53;;;;;;;12.40;6.40;;;17.30;99.90;;;;;;5050610;28;20453;-73
2022/10/31 00:44:20;;;;;;;14.35;6.20;;;17.20;99.90;;;;;;5050369;28;20029;-73
2022/10/31 00:46:45;;;;;;;;;;;17.30;99.90;;;;;;5050743;28;20090;-74
2022/10/31 00:49:12;;;;;;;13.95;6.05;;;17.30;99.90;;;;;;5050314;28;19905;-73
2022/10/31 00:51:38;;;;;;;10.95;5.65;;;17.20;99.90;;;;;;5050091;28;20090;-73
2022/10/31 00:54:04;;;;;;;10.25;6.35;;;17.20;99.90;;;;;;5050576;28;20086;-73
2022/10/31 00:56:30;;;;;;;11.93;5.93;;;17.20;99.90;;;;;;5050260;28;20047;-74
2022/10/31 00:58:56;;;;;;;18.43;7.00;;;17.20;99.90;;;;;;5050278;28;20112;-73
2022/10/31 01:01:22;;;;;;;14.00;6.60;;;17.20;99.90;;;;;;5050518;28;20040;-73
2022/10/31 01:03:48;;;;;;;12.10;5.82;;;17.20;99.90;;;;;;5032277;28;20025;-73
2022/10/31 01:06:15;;;;;;;12.30;5.33;;;17.20;99.90;;;;;;5050201;28;20147;-73
2022/10/31 01:08:44;;;;;;;14.25;6.90;;;17.30;99.90;;;;;;5050312;28;20029;-74
2022/10/31 01:11:15;;;;;;;10.95;6.22;;;17.20;99.90;;;;;;5050021;28;20017;-73
2022/10/31 01:13:44;;;;;;;10.25;6.13;;;17.20;99.90;;;;;;5049723;28;20029;-72
2022/10/31 01:16:16;;;;;;;13.48;5.70;;;17.10;99.90;;;;;;5052577;28;20025;-72
2022/10/31 01:18:42;;;;;;;12.63;6.22;;;17.10;99.90;;;;;;5053922;28;20472;-73
2022/10/31 01:21:14;;;;;;;11.63;6.38;;;17.10;99.90;;;;;;5053687;28;20021;-73
2022/10/31 01:23:41;;;;;;;9.85;6.43;;;17.10;99.90;;;;;;5053673;28;20107;-74
2022/10/31 01:26:17;;;;;;;12.10;6.38;;;17.10;99.90;;;;;;5053661;28;20099;-73
2022/10/31 01:28:54;;;;;;;16.02;6.43;;;17.00;99.90;;;;;;5053834;28;20044;-74
2022/10/31 01:31:22;;;;;;;13.80;6.07;;;17.00;99.90;;;;;;5053594;28;20021;-73
2022/10/31 01:33:48;;;;;;;13.93;6.30;;;17.10;99.90;;;;;;5053811;28;20072;-73
2022/10/31 01:36:17;;;;;;;11.82;5.80;;;17.10;99.90;;;;;;5053606;28;20021;-72
2022/10/31 01:38:47;;;;;;;16.67;5.82;;;17.20;99.90;;;;;;5035750;28;20080;-74
2022/10/31 01:41:24;;;;;;;13.40;6.50;;;17.10;99.90;;;;;;5053569;28;20017;-70
2022/10/31 01:43:57;;;;;;;8.55;5.35;;;17.10;99.90;;;;;;5053844;28;20139;-72
2022/10/31 01:46:29;;;;;;;16.60;6.78;;;17.00;99.90;;;;;;5053641;28;20017;-73
2022/10/31 01:48:57;;;;;;;13.77;6.63;;;17.10;99.90;;;;;;5035374;28;20432;-72
2022/10/31 01:51:28;;;;;;;11.38;6.47;;;17.00;99.90;;;;;;5053112;28;20049;-74
2022/10/31 01:54:01;;;;;;;14.50;6.45;;;17.00;99.90;;;;;;5053441;28;20112;-73
2022/10/31 01:56:27;;;;;;;17.52;6.78;;;17.00;99.90;;;;;;5053659;28;20095;-74
2022/10/31 01:58:56;;;;;;;10.60;6.28;;;17.00;99.90;;;;;;5053106;28;20037;-73
2022/10/31 02:01:23;;;;;;;12.10;7.13;;;16.90;99.90;;;;;;5053089;28;20025;-73
2022/10/31 02:03:51;;;;;;;14.07;6.82;;;16.90;99.90;;;;;;5053045;28;20082;-74
2022/10/31 02:06:30;;;;;;;12.65;6.82;;;16.90;99.90;;;;;;5053419;28;20096;-73
2022/10/31 02:08:59;;;;;;;16.15;6.40;;;16.90;99.90;;;;;;5034952;28;20025;-73
2022/10/31 02:11:27;;;;;;;14.25;6.63;;;16.90;99.90;;;;;;5053160;28;20025;-74
2022/10/31 02:13:54;;;;;;;16.40;6.68;;;16.90;99.90;;;;;;5053296;28;20041;-74
2022/10/31 02:16:20;;;;;;;12.65;6.45;;;16.90;99.90;;;;;;5052864;28;20431;-72
2022/10/31 02:18:49;;;;;;;15.27;6.50;;;16.90;99.90;;;;;;5052963;28;20510;-73
2022/10/31 02:21:38;;;;;;;13.88;6.78;;;16.90;99.90;;;;;;5053286;28;20488;-73
2022/10/31 02:24:42;;;;;;;11.73;6.53;;;16.90;99.90;;;;;;5034744;28;20134;-73
2022/10/31 02:27:39;;;;;;;10.95;6.38;;;16.80;99.90;;;;;;5010661;28;20026;-74
2022/10/31 02:30:11;;;;;;;17.02;6.68;;;16.80;99.90;;;;;;5011062;28;20022;-73
2022/10/31 02:32:54;;;;;;;9.25;6.15;;;16.80;99.90;;;;;;5010851;28;20029;-73
2022/10/31 02:35:40;;;;;;;13.88;6.47;;;16.70;99.90;;;;;;5010490;28;20109;-73
2022/10/31 02:38:30;;;;;;;8.52;5.07;;;16.70;99.90;;;;;;5010799;28;20038;-73
2022/10/31 02:41:34;;;;;;;12.27;6.25;;;16.70;99.90;;;;;;5010411;28;20470;-74
2022/10/31 02:44:05;;;;;;;13.43;6.30;;;16.70;99.90;;;;;;5010505;28;20498;-73
2022/10/31 02:46:45;;;;;;;10.05;5.68;;;16.80;99.90;;;;;;5010836;28;20034;-73
2022/10/31 02:49:24;;;;;;;14.57;6.10;;;16.80;99.90;;;;;;5011174;28;20374;-74
2022/10/31 02:51:53;;;;;;;18.35;6.20;;;16.70;99.90;;;;;;5010260;28;20165;-74
2022/10/31 02:54:25;;;;;;;12.63;5.90;;;16.70;99.90;;;;;;5010614;28;20026;-74
2022/10/31 02:57:00;;;;;;;13.45;5.72;;;16.70;99.90;;;;;;5010455;28;20462;-74
2022/10/31 02:59:30;;;;;;;13.68;6.38;;;16.70;99.90;;;;;;5052440;28;20150;-73
2022/10/31 03:02:25;;;;;;;12.30;6.63;;;16.70;99.90;;;;;;5052386;28;20047;-73
2022/10/31 03:05:12;;;;;;;12.82;5.97;;;16.60;99.90;;;;;;5052384;28;20512;-74
2022/10/31 03:08:12;;;;;;;14.07;6.45;;;16.70;99.90;;;;;;5052201;28;20028;-72
2022/10/31 03:11:01;;;;;;;10.07;5.65;;;16.70;99.90;;;;;;5052004;28;20453;-74
2022/10/31 03:14:13;;;;;;;13.43;5.68;;;16.70;99.90;;;;;;5052061;28;20025;-73
2022/10/31 03:17:03;;;;;;;13.40;5.28;;;16.70;99.90;;;;;;5047902;28;20060;-73
2022/10/31 03:19:34;;;;;;;18.65;6.90;;;16.70;99.90;;;;;;5052146;28;20415;-74
2022/10/31 03:22:30;;;;;;;12.48;5.82;;;16.70;99.90;;;;;;5051877;28;20082;-73
2022/10/31 03:25:04;;;;;;;12.90;6.10;;;16.70;99.90;;;;;;5051538;28;20550;-73
2022/10/31 03:27:34;;;;;;;14.75;6.35;;;16.70;99.90;;;;;;5033650;28;20112;-72
2022/10/31 03:30:07;;;;;;;12.23;6.10;;;16.60;99.90;;;;;;5051328;28;20049;-73
2022/10/31 03:32:45;;;;;;;12.25;6.20;;;16.60;99.90;;;;;;5051618;28;20020;-74
2022/10/31 03:35:15;;;;;;;12.50;5.85;;;16.60;99.90;;;;;;5033432;28;20120;-73
2022/10/31 03:37:42;;;;;;;12.00;6.43;;;16.60;99.90;;;;;;5032622;28;20110;-73
2022/10/31 03:40:09;;;;;;;;;;;16.50;99.90;;;;;;5051865;28;20140;-74
2022/10/31 03:42:41;;;;;;;14.18;6.45;;;16.40;99.90;;;;;;5033315;28;20245;-73
2022/10/31 03:45:19;;;;;;;15.65;6.57;;;16.40;99.90;;;;;;5032863;28;20029;-74
2022/10/31 03:47:47;;;;;;;15.60;6.75;;;16.40;99.90;;;;;;5051278;28;20116;-73
2022/10/31 03:50:15;;;;;;;14.60;6.82;;;16.30;99.90;;;;;;5051380;28;20500;-73
2022/10/31 03:52:57;;;;;;;19.77;7.22;;;16.30;99.90;;;;;;5033401;28;20074;-73
2022/10/31 03:55:52;;;;;;;15.50;6.93;;;16.30;99.90;;;;;;5051561;28;20032;-73
2022/10/31 03:58:27;;;;;;;13.95;6.82;;;16.20;99.90;;;;;;5047153;28;20053;-73
2022/10/31 04:00:56;;;;;;;12.85;6.50;;;16.20;99.90;;;;;;5051374;28;20036;-73
2022/10/31 04:03:28;;;;;;;13.98;6.75;;;16.20;99.90;;;;;;5050973;28;20035;-71
2022/10/31 04:05:58;;;;;;;11.32;6.50;;;16.20;99.90;;;;;;5043642;28;20512;-73
2022/10/31 04:08:29;;;;;;;16.05;6.07;;;16.30;99.90;;;;;;5036058;28;20025;-74
2022/10/31 04:10:57;;;;;;;9.77;6.57;;;16.30;99.90;;;;;;5024311;28;20029;-73
2022/10/31 04:13:29;;;;;;;12.35;6.93;;;16.30;99.90;;;;;;5024122;28;20115;-73
2022/10/31 04:15:55;;;;;;;11.95;6.00;;;16.30;99.90;;;;;;5044737;28;20172;-73
2022/10/31 04:18:24;;;;;;;;;;;16.30;99.90;;;;;;5048236;28;20044;-73
2022/10/31 04:21:01;;;;;;;14.45;6.40;;;16.30;99.90;;;;;;5047594;28;19913;-74
2022/10/31 04:23:28;;;;;;;8.40;5.10;;;16.30;99.90;;;;;;5044913;28;20016;-74
2022/10/31 04:25:54;;;;;;;13.50;5.38;;;16.30;99.90;;;;;;5050718;28;20156;-74
2022/10/31 04:28:20;;;;;;;18.47;6.13;;;16.30;99.90;;;;;;5034140;28;20385;-72
2022/10/31 04:30:46;;;;;;;15.50;6.33;;;16.30;99.90;;;;;;5041297;28;20028;-77
2022/10/31 04:33:12;;;;;;;17.48;6.30;;;16.30;99.90;;;;;;5024251;28;20112;-75
2022/10/31 04:35:38;;;;;;;13.43;6.57;;;16.20;99.90;;;;;;5044975;28;20021;-74
2022/10/31 04:38:04;;;;;;;18.30;6.30;;;16.20;99.90;;;;;;5051350;28;20223;-72
2022/10/31 04:40:32;;;;;;;14.90;6.40;;;16.20;99.90;;;;;;5052400;28;20086;-71
2022/10/31 04:42:58;;;;;;;9.38;5.53;;;16.30;99.90;;;;;;5052492;28;20454;-72
2022/10/31 04:45:24;;;;;;;12.60;5.80;;;16.30;99.90;;;;;;5034174;28;20489;-73
2022/10/31 04:47:50;;;;;;;13.30;6.75;;;16.30;99.90;;;;;;5034570;28;20832;-71
2022/10/31 04:50:16;;;;;;;14.20;6.65;;;16.30;99.90;;;;;;5036837;28;20037;-72
2022/10/31 04:52:44;;;;;;;12.35;6.45;;;16.30;99.90;;;;;;5055923;28;20053;-72
2022/10/31 04:55:11;;;;;;;10.55;5.60;;;16.30;99.90;;;;;;5038195;28;20047;-74
2022/10/31 04:57:48;;;;;;;18.90;6.35;;;16.20;99.90;;;;;;5056329;28;20078;-73
2022/10/31 05:00:17;;;;;;;12.40;6.00;;;16.30;99.90;;;;;;5056564;28;20049;-74
2022/10/31 05:02:44;;;;;;;12.82;6.40;;;16.20;99.90;;;;;;5056075;28;20105;-73
2022/10/31 05:05:11;;;;;;;14.07;6.25;;;16.20;99.90;;;;;;5055921;28;20029;-73
2022/10/31 05:07:42;;;;;;;13.63;5.97;;;16.20;99.90;;;;;;5056020;28;20448;-73
2022/10/31 05:10:17;;;;;;;13.25;6.05;;;16.10;99.90;;;;;;5037910;28;20044;-73
2022/10/31 05:12:56;;;;;;;11.63;6.00;;;16.10;99.90;;;;;;5056073;28;20028;-78
2022/10/31 05:15:24;;;;;;;14.45;7.07;;;16.10;99.90;;;;;;5056000;28;20025;-79
2022/10/31 05:17:51;;;;;;;13.30;6.18;;;16.10;99.90;;;;;;5056315;28;20029;-76
2022/10/31 05:20:18;;;;;;;;;;;16.10;99.90;;;;;;5057340;28;20048;-75
2022/10/31 05:22:50;;;;;;;12.15;6.20;;;16.10;99.90;;;;;;5056643;28;19912;-74
2022/10/31 05:25:16;;;;;;;16.33;6.32;;;16.10;99.90;;;;;;5056367;28;20428;-74
2022/10/31 05:27:43;;;;;;;;;;;16.10;99.90;;;;;;5056563;28;20059;-74
2022/10/31 05:30:11;;;;;;;12.18;6.05;;;16.10;99.90;;;;;;5056710;28;19904;-73
2022/10/31 05:32:47;;;;;;;11.77;5.90;;;16.20;99.90;;;;;;5056155;28;20029;-73
2022/10/31 05:35:16;;;;;;;15.70;6.20;;;16.20;99.90;;;;;;5056443;28;20376;-74
2022/10/31 05:37:42;;;;;;;14.68;6.88;;;16.20;99.90;;;;;;5037999;28;20119;-76
2022/10/31 05:40:10;;;;;;;17.50;6.72;;;16.30;99.90;;;;;;5056023;28;20059;-74
2022/10/31 05:42:39;;;;;;;17.08;6.97;;;16.30;99.90;;;;;;5056245;28;20025;-75
2022/10/31 05:45:09;;;;;;;12.63;6.40;;;16.30;99.90;;;;;;5056506;28;20092;-74
2022/10/31 05:47:36;;;;;;;17.73;7.18;;;16.40;99.90;;;;;;5056127;28;20029;-74
2022/10/31 05:50:02;;;;;;;11.95;6.53;;;16.40;99.90;;;;;;5055854;28;20492;-74
2022/10/31 05:52:28;;;;;;;12.88;6.25;;;16.50;99.90;;;;;;5055384;28;20067;-75
2022/10/31 05:54:56;;;;;;;15.88;5.47;;;16.90;99.90;;;;;;5055658;28;20074;-75
2022/10/31 05:57:22;;;;;;;11.05;5.43;;;17.30;99.90;;;;;;5055332;28;20524;-74
2022/10/31 05:59:48;;;;;;;15.05;5.72;;;17.70;99.90;;;;;;5037887;28;20025;-75
2022/10/31 06:02:14;;;;;;;14.93;5.57;;;18.10;99.90;;;;;;5036121;28;20115;-75
2022/10/31 06:04:40;;;;;;;12.20;5.72;;;18.40;99.90;;;;;;5055357;28;20056;-75
2022/10/31 06:07:06;;;;;;;13.35;5.10;;;18.80;99.90;;;;;;5054666;28;20017;-75
2022/10/31 06:09:32;;;;;;;13.05;4.82;;;19.20;99.90;;;;;;5054878;28;20091;-76
2022/10/31 06:12:10;;;;;;;12.88;5.07;;;19.30;99.90;;;;;;5054685;28;20417;-76
2022/10/31 06:14:39;;;;;;;13.27;5.05;;;19.50;99.90;;;;;;5055405;28;20095;-79
2022/10/31 06:17:09;;;;;;;9.05;4.43;;;19.70;99.90;;;;;;5055051;28;20036;-79
2022/10/31 06:19:36;;;;;;;15.23;4.70;;;20.10;99.90;;;;;;5054626;28;20060;-77
2022/10/31 06:22:02;;;;;;;10.52;4.95;;;20.30;99.90;;;;;;5055057;28;20021;-77
2022/10/31 06:24:29;;;;;;;8.55;4.65;;;20.20;99.90;;;;;;5054612;28;20031;-75
2022/10/31 06:26:56;;;;;;;;;;;20.30;99.90;;;;;;5036865;28;20025;-76
2022/10/31 06:29:22;;;;;;;12.27;4.88;;;20.40;99.90;;;;;;5036409;28;19905;-76
2022/10/31 06:31:52;;;;;;;9.63;4.75;;;20.40;99.90;;;;;;5054385;28;20017;-77
2022/10/31 06:34:18;;;;;;;11.55;4.57;;;21.00;99.90;;;;;;5054078;28;20029;-76
2022/10/31 06:36:46;;;;;;;10.93;4.85;;;21.50;99.90;;;;;;5054151;28;20046;-77
2022/10/31 06:39:14;;;;;;;8.70;4.50;;;22.00;99.90;;;;;;5054021;28;20029;-76
2022/10/31 06:41:42;;;;;;;11.60;4.00;;;22.70;99.90;;;;;;5054043;28;20029;-75
2022/10/31 06:44:08;;;;;;;11.35;4.30;;;23.20;99.90;;;;;;5036336;28;20033;-76
2022/10/31 06:46:34;;;;;;;8.88;3.90;;;23.50;99.90;;;;;;5054268;28;20024;-76
2022/10/31 06:49:00;;;;;;;9.55;4.45;;;24.10;99.90;;;;;;5053747;28;20029;-75
2022/10/31 06:51:26;;;;;;;8.50;4.15;;;23.80;99.90;;;;;;5053527;28;20087;-77
2022/10/31 06:53:53;;;;;;;11.23;4.10;;;23.80;99.90;;;;;;5053481;28;20033;-77
2022/10/31 06:56:19;;;;;;;7.05;3.75;;;23.30;99.90;;;;;;5053276;28;20021;-76
2022/10/31 06:58:45;;;;;;;12.55;4.35;;;22.50;99.90;;;;;;5053538;28;20032;-75
2022/10/31 07:01:11;;;;;;;12.10;4.40;;;22.50;99.90;;;;;;5053101;28;20028;-76
2022/10/31 07:03:37;;;;;;;10.30;4.30;;;22.60;99.90;;;;;;5053144;28;20028;-76
2022/10/31 07:06:04;;;;;;;12.80;4.10;;;23.00;99.90;;;;;;5035059;28;20025;-78
2022/10/31 07:08:30;;;;;;;8.30;4.50;;;23.20;99.90;;;;;;5053018;28;20079;-77
2022/10/31 07:10:58;;;;;;;10.02;4.13;;;23.00;99.90;;;;;;5052700;28;20051;-76
2022/10/31 07:13:25;;;;;;;14.68;4.43;;;23.30;99.90;;;;;;5053157;28;20508;-78
2022/10/31 07:15:54;;;;;;;11.43;4.10;;;23.60;99.90;;;;;;5052471;28;20330;-77
2022/10/31 07:18:21;;;;;;;9.63;3.88;;;23.90;99.90;;;;;;5052550;28;20033;-78
2022/10/31 07:20:48;;;;;;;22.08;4.53;;;24.40;99.90;;;;;;5035120;28;20032;-77
2022/10/31 07:23:14;;;;;;;;;;;24.20;99.90;;;;;;5053647;28;20029;-78
2022/10/31 07:25:41;;;;;;;6.80;4.35;;;24.20;99.90;;;;;;5052488;28;19912;-76
2022/10/31 07:28:08;;;;;;;9.65;3.72;;;23.50;99.90;;;;;;5034984;28;20029;-75
2022/10/31 07:30:35;;;;;;;9.32;3.95;;;23.00;99.90;;;;;;5052727;28;20035;-76
2022/10/31 07:33:01;;;;;;;8.98;4.15;;;22.50;99.90;;;;;;5052717;28;20025;-74
2022/10/31 07:35:29;;;;;;;16.38;5.13;;;22.20;99.90;;;;;;5052771;28;20100;-76
2022/10/31 07:37:55;;;;;;;7.32;4.13;;;21.90;99.90;;;;;;5052337;28;20118;-76
2022/10/31 07:40:22;;;;;;;;;;;21.90;99.90;;;;;;5052876;28;20104;-82
2022/10/31 07:42:50;;;;;;;11.98;4.78;;;21.80;99.90;;;;;;5051808;28;19905;-75
2022/10/31 07:45:19;;;;;;;9.48;4.10;;;21.80;99.90;;;;;;5051813;28;20017;-78
2022/10/31 07:47:50;;;;;;;10.40;4.70;;;21.90;99.90;;;;;;5052378;28;20436;-78
2022/10/31 07:50:22;;;;;;;16.30;4.57;;;22.10;99.90;;;;;;5052183;28;20021;-77
2022/10/31 07:52:58;;;;;;;8.65;4.05;;;21.90;99.90;;;;;;5050663;28;20037;-79
2022/10/31 07:55:25;;;;;;;10.77;4.35;;;21.90;99.90;;;;;;5051508;28;20028;-79
2022/10/31 07:58:03;;;;;;;10.40;4.28;;;21.90;99.90;;;;;;5051772;28;20040;-78
2022/10/31 08:00:31;;;;;;;8.82;4.25;;;21.90;99.90;;;;;;5051802;28;20029;-78
2022/10/31 08:03:05;;;;;;;10.45;4.15;;;21.90;99.90;;;;;;5051769;28;20045;-80
2022/10/31 08:05:32;;;;;;;9.70;4.07;;;21.90;99.90;;;;;;5051855;28;20020;-79
2022/10/31 08:07:59;;;;;;;14.40;4.70;;;22.10;99.90;;;;;;5051750;28;20393;-79
2022/10/31 08:10:27;;;;;;;11.23;4.32;;;22.40;99.90;;;;;;5033892;28;20393;-80
2022/10/31 08:13:01;;;;;;;13.13;4.60;;;22.40;99.90;;;;;;5033919;28;20032;-80
2022/10/31 08:15:29;;;;;;;10.75;4.22;;;22.40;99.90;;;;;;5052159;28;20546;-79
2022/10/31 08:17:55;;;;;;;9.73;4.18;;;22.50;99.90;;;;;;5051795;28;20047;-80
2022/10/31 08:20:21;;;;;;;8.75;3.95;;;22.50;99.90;;;;;;5052281;28;20491;-80
2022/10/31 08:22:57;;;;;;;8.25;3.58;;;22.50;99.90;;;;;;5052409;28;20036;-80
2022/10/31 08:25:26;;;;;;;11.48;4.03;;;22.70;99.90;;;;;;5051870;28;20049;-79
2022/10/31 08:27:53;;;;;;;12.00;3.65;;;22.60;99.90;;;;;;5052179;28;20089;-79
2022/10/31 08:30:24;;;;;;;9.30;4.13;;;22.80;99.90;;;;;;5034175;28;20175;-80
2022/10/31 08:33:11;;;;;;;8.40;3.67;;;22.80;99.90;;;;;;5052351;28;20032;-81
2022/10/31 08:35:38;;;;;;;11.90;3.78;;;23.00;99.90;;;;;;5052358;28;20056;-80
2022/10/31 08:38:05;;;;;;;9.20;3.40;;;23.20;99.90;;;;;;5051699;28;20037;-80
2022/10/31 08:40:32;;;;;;;6.82;3.45;;;23.30;99.90;;;;;;5051678;28;20060;-80
2022/10/31 08:43:05;;;;;;;9.32;3.65;;;23.40;99.90;;;;;;5033701;28;20025;-79
2022/10/31 08:45:33;;;;;;;10.30;3.90;;;23.30;99.90;;;;;;5051869;28;20033;-79
2022/10/31 08:48:01;;;;;;;10.75;3.80;;;23.30;99.90;;;;;;5051850;28;20029;-80
2022/10/31 08:50:29;;;;;;;10.43;3.40;;;23.40;99.90;;;;;;5050689;28;20075;-81
2022/10/31 08:53:03;;;;;;;13.10;3.50;;;23.60;99.90;;;;;;5050176;28;20338;-81
2022/10/31 08:55:30;;;;;;;12.48;3.63;;;23.80;99.90;;;;;;5050494;28;20036;-81
2022/10/31 08:57:57;;;;;;;;;;;24.00;99.90;;;;;;5050732;28;20033;-81
2022/10/31 09:00:24;;;;;;;10.02;3.47;;;24.20;99.90;;;;;;5050479;28;19912;-80
2022/10/31 09:02:58;;;;;;;10.63;3.95;;;23.90;99.90;;;;;;5032373;28;20029;-80
2022/10/31 09:05:24;;;;;;;8.15;3.80;;;23.80;99.90;;;;;;5050056;28;20021;-81
2022/10/31 09:07:50;;;;;;;8.18;3.95;;;23.70;99.90;;;;;;5050642;28;20102;-80
2022/10/31 09:10:17;;;;;;;13.15;4.35;;;24.00;99.90;;;;;;5050188;28;20039;-79
2022/10/31 09:12:44;;;;;;;13.63;3.67;;;24.20;99.90;;;;;;5050424;28;20035;-81
2022/10/31 09:15:10;;;;;;;7.95;3.45;;;24.10;99.90;;;;;;5050267;28;20061;-79
2022/10/31 09:17:37;;;;;;;12.85;4.00;;;24.10;99.90;;;;;;5051591;28;20465;-79
2022/10/31 09:20:04;;;;;;;10.50;3.95;;;24.30;99.90;;;;;;5051868;28;20032;-79
2022/10/31 09:22:30;;;;;;;9.32;3.85;;;24.40;99.90;;;;;;5051896;28;20021;-79
2022/10/31 09:24:56;;;;;;;13.10;4.32;;;24.50;99.90;;;;;;5051424;28;20027;-80
2022/10/31 09:27:22;;;;;;;14.38;4.78;;;24.50;99.90;;;;;;5051740;28;20036;-80
2022/10/31 09:29:48;;;;;;;16.05;5.20;;;24.50;99.90;;;;;;5051273;28;20429;-80
2022/10/31 09:32:14;;;;;;;16.33;4.70;;;24.40;99.90;;;;;;5033348;28;20052;-79
2022/10/31 09:34:40;;;;;;;13.00;4.90;;;24.40;99.90;;;;;;5051611;28;20100;-80
2022/10/31 09:37:06;;;;;;;13.80;4.57;;;24.40;99.90;;;;;;5053487;28;20112;-79
2022/10/31 09:39:32;;;;;;;14.40;4.88;;;24.50;99.90;;;;;;5055007;28;20375;-79
2022/10/31 09:42:04;;;;;;;13.35;5.15;;;24.60;99.90;;;;;;5036843;28;20029;-81
2022/10/31 09:45:09;;;;;;;11.30;4.63;;;24.80;99.90;;;;;;5054403;28;20128;-81
2022/10/31 09:47:59;;;;;;;11.07;4.30;;;24.90;99.90;;;;;;4974916;28;20039;-81
2022/10/31 09:50:48;;;;;;;15.55;5.22;;;24.80;99.90;;;;;;4973863;28;20472;-79
2022/10/31 09:53:26;;;;;;;15.45;4.35;;;24.80;99.90;;;;;;4974127;28;20045;-80
2022/10/31 09:55:58;;;;;;;13.73;4.95;;;24.70;99.90;;;;;;4973999;28;20031;-83
2022/10/31 09:58:29;;;;;;;15.57;5.25;;;24.50;99.90;;;;;;4973503;28;20403;-79
2022/10/31 10:00:59;;;;;;;9.48;4.13;;;24.60;99.90;;;;;;4973778;28;20027;-81
2022/10/31 10:03:47;;;;;;;11.15;4.70;;;24.50;99.90;;;;;;4973848;28;20038;-81
2022/10/31 10:06:27;;;;;;;9.85;4.20;;;24.60;99.90;;;;;;4973284;28;20045;-80
2022/10/31 10:08:55;;;;;;;14.68;4.60;;;24.60;99.90;;;;;;4973658;28;20031;-81
2022/10/31 10:11:50;;;;;;;15.13;5.13;;;24.70;99.90;;;;;;4973260;28;20216;-80
2022/10/31 10:14:53;;;;;;;17.02;4.85;;;24.80;99.90;;;;;;4973584;28;20042;-80
2022/10/31 10:17:51;;;;;;;9.43;4.95;;;24.70;99.90;;;;;;4973291;28;20045;-80
2022/10/31 10:20:53;;;;;;;9.23;4.47;;;24.60;99.90;;;;;;4971235;28;20523;-80
2022/10/31 10:24:00;;;;;;;13.98;4.97;;;24.70;99.90;;;;;;4978429;28;20022;-80
2022/10/31 10:26:54;;;;;;;10.80;4.22;;;24.90;99.90;;;;;;5021156;28;20068;-81
2022/10/31 10:29:36;;;;;;;13.48;4.78;;;25.20;99.90;;;;;;5034745;28;20041;-83
2022/10/31 10:32:10;;;;;;;14.88;5.20;;;25.40;99.90;;;;;;5032863;28;20036;-80
2022/10/31 10:34:48;;;;;;;14.35;4.55;;;25.40;99.90;;;;;;5034355;28;20074;-80
2022/10/31 10:37:39;;;;;;;16.13;4.47;;;25.40;99.90;;;;;;5034166;28;20147;-78
2022/10/31 10:40:17;;;;;;;14.48;4.10;;;25.40;99.90;;;;;;5016592;28;20041;-81
2022/10/31 10:49:06;;;;;;;13.45;4.00;;;25.80;99.90;;;;;;5033622;28;20406;-80
2022/10/31 10:52:07;;;;;;;13.65;4.07;;;25.80;99.90;;;;;;5033278;28;20053;-83
2022/10/31 10:55:07;;;;;;;11.38;4.10;;;25.60;99.90;;;;;;5031916;28;20044;-80
2022/10/31 10:58:00;;;;;;;18.92;4.93;;;25.40;99.90;;;;;;5033973;28;20065;-81
2022/10/31 11:00:49;;;;;;;9.88;3.63;;;25.60;99.90;;;;;;5033883;28;20025;-82
2022/10/31 11:03:17;;;;;;;11.65;3.97;;;25.70;99.90;;;;;;5031561;28;20033;-82
2022/10/31 11:05:51;;;;;;;16.05;4.47;;;25.40;99.90;;;;;;5033654;28;20060;-81
2022/10/31 11:08:32;;;;;;;13.60;3.60;;;25.40;99.90;;;;;;5033456;28;20032;-81
2022/10/31 11:11:11;;;;;;;9.95;3.80;;;25.30;99.90;;;;;;5033782;28;20103;-83
2022/10/31 11:13:40;;;;;;;10.10;3.97;;;25.40;99.90;;;;;;5033790;28;20032;-82
2022/10/31 11:16:09;;;;;;;11.15;3.85;;;25.40;99.90;;;;;;5043076;28;20025;-81
2022/10/31 11:18:45;;;;;;;13.57;3.92;;;25.30;99.90;;;;;;5053075;28;20119;-80
2022/10/31 11:21:20;;;;;;;8.25;3.50;;;25.40;99.90;;;;;;5053112;28;20064;-83
2022/10/31 11:23:46;;;;;;;10.82;3.50;;;25.60;99.90;;;;;;5053591;28;20082;-80
2022/10/31 11:26:21;;;;;;;16.08;5.57;;;25.70;99.90;;;;;;5043777;28;20465;-82
2022/10/31 11:29:03;;;;;;;11.18;3.28;;;25.70;99.90;;;;;;5053550;28;20025;-84
2022/10/31 11:31:32;;;;;;;10.52;3.00;;;25.90;99.90;;;;;;5053475;28;20025;-82
2022/10/31 11:34:03;;;;;;;9.60;3.13;;;26.00;99.90;;;;;;5036500;28;20373;-80
2022/10/31 11:36:37;;;;;;;9.88;3.30;;;26.10;99.90;;;;;;5053498;28;20392;-81
2022/10/31 11:39:24;;;;;;;8.45;2.97;;;26.20;99.90;;;;;;5053007;28;20032;-80
2022/10/31 11:41:54;;;;;;;10.43;3.08;;;26.10;99.90;;;;;;5052900;28;20057;-80
2022/10/31 11:44:23;;;;;;;9.30;3.65;;;26.10;99.90;;;;;;5053066;28;20055;-80
2022/10/31 11:46:54;;;;;;;6.43;3.17;;;26.10;99.90;;;;;;5052698;28;20130;-81
2022/10/31 11:49:34;;;;;;;9.52;3.33;;;26.20;99.90;;;;;;5053198;28;20029;-79
2022/10/31 11:52:14;;;;;;;6.72;3.40;;;26.10;99.90;;;;;;5052620;28;20076;-80
2022/10/31 11:54:58;;;;;;;8.85;2.95;;;26.10;99.90;;;;;;5053063;28;20044;-80
2022/10/31 11:57:41;;;;;;;7.25;2.78;;;26.10;99.90;;;;;;5053276;28;20043;-79
2022/10/31 12:00:31;;;;;;;6.93;2.72;;;26.10;99.90;;;;;;5052957;28;20071;-79
2022/10/31 12:03:22;;;;;;;9.10;2.88;;;26.30;99.90;;;;;;5053216;28;20491;-80
2022/10/31 12:06:02;;;;;;;8.70;2.92;;;26.30;99.90;;;;;;5053030;28;20484;-80
2022/10/31 12:08:34;;;;;;;6.55;2.78;;;26.20;99.90;;;;;;5052968;28;20029;-81
2022/10/31 12:11:11;;;;;;;14.65;3.10;;;26.10;99.90;;;;;;5053390;28;20519;-80
2022/10/31 12:14:08;;;;;;;10.48;2.90;;;26.10;99.90;;;;;;5053247;28;20369;-80
2022/10/31 12:17:01;;;;;;;8.20;2.47;;;26.10;99.90;;;;;;5052919;28;20032;-82
2022/10/31 12:20:05;;;;;;;10.50;2.83;;;26.30;99.90;;;;;;5052363;28;20416;-81
2022/10/31 12:23:09;;;;;;;9.68;2.78;;;26.20;99.90;;;;;;5053024;28;20028;-81
2022/10/31 12:25:47;;;;;;;12.43;3.50;;;26.30;99.90;;;;;;5048497;28;20056;-80
2022/10/31 12:28:47;;;;;;;8.25;3.10;;;26.20;99.90;;;;;;5034745;28;20029;-77
2022/10/31 12:31:50;;;;;;;8.25;2.85;;;26.10;99.90;;;;;;5052724;28;20025;-82
2022/10/31 12:34:50;;;;;;;8.23;2.78;;;26.10;99.90;;;;;;5052435;28;20021;-81
2022/10/31 12:37:48;;;;;;;14.32;3.47;;;26.20;99.90;;;;;;5052134;28;20108;-83
2022/10/31 12:40:45;;;;;;;11.20;3.70;;;26.10;99.90;;;;;;5034533;28;20473;-79
2022/10/31 12:43:32;;;;;;;8.10;3.00;;;26.20;99.90;;;;;;5034381;28;20057;-82
2022/10/31 12:45:59;;;;;;;6.47;3.10;;;26.20;99.90;;;;;;5052973;28;20025;-83
2022/10/31 12:48:44;;;;;;;9.48;3.58;;;26.10;99.90;;;;;;5052211;28;20052;-81
2022/10/31 12:51:37;;;;;;;8.55;3.80;;;26.10;99.90;;;;;;5052387;28;20123;-83
2022/10/31 12:54:24;;;;;;;12.07;3.60;;;26.00;99.90;;;;;;5052949;28;20025;-81
2022/10/31 12:57:09;;;;;;;11.63;3.70;;;26.10;99.90;;;;;;5052226;28;20029;-80
2022/10/31 12:59:51;;;;;;;13.63;3.97;;;26.00;99.90;;;;;;5052213;28;20037;-79
2022/10/31 13:02:56;;;;;;;8.52;3.75;;;25.80;99.90;;;;;;5052251;28;20049;-81
2022/10/31 13:05:33;;;;;;;13.95;4.22;;;25.70;99.90;;;;;;4971321;28;20505;-78
2022/10/31 13:08:24;;;;;;;10.85;4.30;;;25.70;99.90;;;;;;5043589;28;20037;-80
2022/10/31 13:11:07;;;;;;;8.18;4.40;;;25.80;99.90;;;;;;5054381;28;20096;-77
2022/10/31 13:13:51;;;;;;;10.32;4.50;;;25.70;99.90;;;;;;5056173;28;20214;-79
2022/10/31 13:16:21;;;;;;;8.30;4.22;;;25.80;99.90;;;;;;5054890;28;20020;-81
2022/10/31 13:19:11;;;;;;;12.38;4.72;;;25.60;99.90;;;;;;5055969;28;20041;-81
2022/10/31 13:21:48;;;;;;;8.77;4.53;;;25.40;99.90;;;;;;5056704;28;20025;-80